Time;durP1;ratioP1;P1;durP2;ratioP2;P2;SDS_P1;SDS_P2;PMS_P1;PMS_P2;Temp;Humidity;BMP_temperature;BMP_pressure;BME280_temperature;BME280_humidity;BME280_pressure;Samples;Min_cycle;Max_cycle;Signal;HPM_P1;HPM_P2
2021/12/16 00:07:11;;;;;;;29.27;21.17;;;9.60;1.00;;;;;;6115404;23;20475;-84
2021/12/16 00:09:41;;;;;;;35.75;24.38;;;9.60;1.00;;;;;;6135443;23;20410;-82
2021/12/16 00:29:33;;;;;;;32.45;22.05;;;9.70;1.00;;;;;;6138799;23;20384;-81
2021/12/16 00:32:16;;;;;;;34.87;22.53;;;9.70;1.00;;;;;;6142868;23;20182;-80
2021/12/16 00:34:43;;;;;;;31.83;22.83;;;9.70;1.00;;;;;;6149459;23;20387;-77
2021/12/16 00:37:11;;;;;;;35.80;23.43;;;9.70;1.00;;;;;;6140750;23;20375;-80
2021/12/16 00:39:41;;;;;;;35.93;23.93;;;9.70;1.00;;;;;;6140916;23;20418;-80
2021/12/16 00:42:15;;;;;;;35.33;22.20;;;9.70;1.00;;;;;;6137780;23;21104;-81
2021/12/16 00:45:08;;;;;;;34.17;23.57;;;9.60;1.00;;;;;;6142244;23;20211;-79
2021/12/16 00:47:48;;;;;;;32.35;22.73;;;9.60;1.00;;;;;;6135580;23;20419;-79
2021/12/16 00:50:23;;;;;;;31.67;21.30;;;9.60;1.00;;;;;;6137860;23;20215;-80
2021/12/16 00:55:46;;;;;;;33.95;23.08;;;9.60;1.00;;;;;;6142883;23;21256;-78
2021/12/16 00:58:15;;;;;;;36.60;23.00;;;9.60;1.00;;;;;;6135258;23;20190;-79
2021/12/16 01:00:49;;;;;;;31.55;21.70;;;9.60;1.00;;;;;;6106099;23;21292;-82
2021/12/16 01:03:23;;;;;;;36.10;24.33;;;9.60;1.00;;;;;;6128031;23;20184;-82
2021/12/16 01:06:17;;;;;;;40.27;24.73;;;9.60;1.00;;;;;;6131623;23;20227;-82
2021/12/16 01:34:03;;;;;;;33.50;23.33;;;9.20;1.00;;;;;;6136450;23;20195;-81
2021/12/16 01:36:50;;;;;;;38.88;23.50;;;9.20;1.00;;;;;;6133706;23;20186;-81
2021/12/16 01:48:02;;;;;;;34.58;23.35;;;9.20;1.00;;;;;;6143211;23;20176;-84
2021/12/16 01:50:33;;;;;;;34.10;23.38;;;9.20;1.00;;;;;;6144768;23;20190;-85
2021/12/16 01:53:16;;;;;;;33.57;22.63;;;9.30;1.00;;;;;;6146157;23;20213;-85
2021/12/16 01:55:58;;;;;;;35.53;22.17;;;9.30;1.00;;;;;;6148893;23;20402;-85
2021/12/16 01:58:29;;;;;;;33.53;25.20;;;9.30;1.00;;;;;;6144027;23;21134;-86
2021/12/16 02:01:10;;;;;;;30.37;22.60;;;9.30;1.00;;;;;;6135864;23;20477;-86
2021/12/16 02:03:42;;;;;;;33.73;23.80;;;9.30;1.00;;;;;;6138909;23;20400;-87
2021/12/16 02:06:25;;;;;;;37.53;23.27;;;9.30;1.00;;;;;;6144702;23;20403;-85
2021/12/16 02:08:53;;;;;;;32.78;23.65;;;9.20;1.00;;;;;;6152255;23;20196;-85
2021/12/16 02:11:38;;;;;;;35.67;23.80;;;9.20;1.00;;;;;;6128103;23;20246;-85
2021/12/16 02:28:29;;;;;;;27.20;19.33;;;9.20;1.00;;;;;;6149007;23;20417;-88
2021/12/16 02:36:37;;;;;;;23.50;17.70;;;9.10;1.00;;;;;;6152560;23;20176;-85
2021/12/16 02:39:11;;;;;;;24.02;17.52;;;9.00;1.00;;;;;;6152596;23;20552;-86
2021/12/16 02:41:40;;;;;;;24.65;15.63;;;8.90;1.00;;;;;;6153319;23;20191;-86
2021/12/16 02:44:22;;;;;;;22.58;16.80;;;8.90;1.00;;;;;;6151870;23;20186;-86
2021/12/16 02:49:37;;;;;;;25.52;15.88;;;8.80;1.00;;;;;;6150484;23;20342;-85
2021/12/16 02:52:04;;;;;;;20.58;14.68;;;8.80;1.00;;;;;;6126932;23;20219;-83
2021/12/16 02:54:33;;;;;;;17.97;14.23;;;8.80;1.00;;;;;;6125394;23;20239;-85
2021/12/16 02:57:00;;;;;;;19.40;14.37;;;8.80;1.00;;;;;;6151716;23;20392;-84
2021/12/16 02:59:29;;;;;;;19.50;13.70;;;8.80;1.00;;;;;;6150447;23;20864;-85
2021/12/16 03:02:01;;;;;;;18.60;13.65;;;8.80;1.00;;;;;;6151315;23;20202;-85
2021/12/16 03:04:29;;;;;;;17.13;13.13;;;8.80;1.00;;;;;;6122901;23;20195;-84
2021/12/16 03:06:58;;;;;;;20.85;14.20;;;8.80;1.00;;;;;;6151143;23;20290;-87
2021/12/16 03:09:59;;;;;;;17.38;13.32;;;8.80;1.00;;;;;;6148740;23;20188;-85
2021/12/16 03:12:42;;;;;;;16.83;13.02;;;8.90;1.00;;;;;;6140171;23;20193;-85
2021/12/16 03:15:21;;;;;;;17.95;13.32;;;8.90;1.00;;;;;;6140240;23;20207;-84
2021/12/16 03:17:56;;;;;;;18.55;12.20;;;9.00;1.00;;;;;;6113960;23;20200;-87
2021/12/16 03:20:32;;;;;;;17.65;12.10;;;9.00;1.00;;;;;;6142850;23;20180;-85
2021/12/16 03:23:13;;;;;;;14.90;11.85;;;9.10;1.00;;;;;;6136779;23;20265;-87
2021/12/16 03:25:53;;;;;;;15.27;11.85;;;9.10;1.00;;;;;;6139962;23;20187;-87
2021/12/16 03:28:57;;;;;;;17.35;12.38;;;9.10;1.00;;;;;;6141349;23;20843;-85
2021/12/16 03:31:59;;;;;;;18.25;12.90;;;9.20;1.00;;;;;;6145009;23;20199;-86
2021/12/16 03:34:41;;;;;;;21.90;12.20;;;9.20;1.00;;;;;;6143513;23;20288;-87
2021/12/16 03:37:17;;;;;;;17.13;11.80;;;9.20;1.00;;;;;;6145907;23;20183;-87
2021/12/16 03:39:50;;;;;;;16.10;12.30;;;9.20;1.00;;;;;;6143472;23;20260;-86
2021/12/16 03:42:20;;;;;;;15.63;11.55;;;9.20;1.00;;;;;;6144345;23;20417;-86
2021/12/16 03:44:54;;;;;;;13.00;10.88;;;9.20;1.00;;;;;;6141106;23;20194;-84
2021/12/16 03:47:24;;;;;;;16.87;11.43;;;9.30;1.00;;;;;;6149047;23;20182;-87
2021/12/16 03:49:52;;;;;;;15.32;12.00;;;9.20;1.00;;;;;;6152207;23;20392;-86
2021/12/16 03:52:19;;;;;;;18.33;12.90;;;9.20;1.00;;;;;;6140398;23;21427;-84
2021/12/16 03:54:51;;;;;;;17.20;12.10;;;9.30;1.00;;;;;;6114061;23;20746;-86
2021/12/16 03:57:22;;;;;;;14.85;11.40;;;9.30;1.00;;;;;;6117382;23;20183;-85
2021/12/16 03:59:51;;;;;;;15.90;12.15;;;9.30;1.00;;;;;;6139748;23;20196;-86
2021/12/16 04:02:22;;;;;;;14.98;10.93;;;9.20;1.00;;;;;;6138147;23;20196;-86
2021/12/16 04:04:51;;;;;;;13.20;10.70;;;9.30;1.00;;;;;;6136437;23;20220;-84
2021/12/16 04:07:21;;;;;;;17.10;11.53;;;9.20;1.00;;;;;;6140360;23;20190;-82
2021/12/16 04:09:49;;;;;;;20.45;12.13;;;9.30;1.00;;;;;;6111374;23;21261;-84
2021/12/16 04:12:19;;;;;;;16.30;12.35;;;9.30;1.00;;;;;;6136836;23;20227;-85
2021/12/16 04:14:48;;;;;;;17.83;12.98;;;9.30;1.00;;;;;;6135329;23;20192;-86
2021/12/16 04:17:17;;;;;;;19.70;12.37;;;9.30;1.00;;;;;;6135961;23;20204;-85
2021/12/16 04:19:44;;;;;;;15.93;12.50;;;9.30;1.00;;;;;;6137511;23;20468;-84
2021/12/16 04:22:16;;;;;;;16.75;12.13;;;9.30;1.00;;;;;;6139135;23;20700;-84
2021/12/16 04:24:44;;;;;;;15.90;12.07;;;9.30;1.00;;;;;;6137317;23;20217;-86
2021/12/16 04:27:11;;;;;;;16.20;12.00;;;9.30;1.00;;;;;;6136608;23;20239;-85
2021/12/16 04:29:38;;;;;;;16.30;12.17;;;9.30;1.00;;;;;;6147066;23;20406;-85
2021/12/16 04:32:06;;;;;;;18.42;11.77;;;9.30;1.00;;;;;;6143953;23;20721;-84
2021/12/16 04:34:35;;;;;;;18.40;11.60;;;9.30;1.00;;;;;;6136221;23;20210;-85
2021/12/16 04:37:02;;;;;;;15.80;12.10;;;9.30;1.00;;;;;;6138156;23;20345;-85
2021/12/16 04:39:31;;;;;;;18.67;12.90;;;9.30;1.00;;;;;;6111935;23;20407;-83
2021/12/16 04:41:59;;;;;;;14.55;11.90;;;9.30;1.00;;;;;;6111133;23;20407;-85
2021/12/16 04:44:27;;;;;;;16.83;11.52;;;9.20;1.00;;;;;;6143183;23;20246;-85
2021/12/16 04:46:54;;;;;;;17.10;11.85;;;9.20;1.00;;;;;;6119325;23;20252;-84
2021/12/16 04:49:21;;;;;;;17.17;11.50;;;9.20;1.00;;;;;;6142408;23;20499;-85
2021/12/16 04:51:53;;;;;;;17.58;12.57;;;9.20;1.00;;;;;;6147887;23;20191;-85
2021/12/16 04:54:23;;;;;;;17.27;10.95;;;9.20;1.00;;;;;;6128332;23;20210;-86
2021/12/16 04:56:52;;;;;;;14.60;11.30;;;9.20;1.00;;;;;;6154584;23;20199;-87
2021/12/16 04:59:21;;;;;;;16.70;11.77;;;9.20;1.00;;;;;;6153669;23;20389;-89
2021/12/16 05:01:51;;;;;;;17.42;12.23;;;9.20;1.00;;;;;;6121751;23;20223;-87
2021/12/16 05:04:18;;;;;;;14.30;11.20;;;9.20;1.00;;;;;;6114572;23;20196;-86
2021/12/16 05:06:45;;;;;;;15.35;11.60;;;9.20;1.00;;;;;;6138243;23;20190;-85
2021/12/16 05:09:31;;;;;;;19.27;13.13;;;9.10;1.00;;;;;;6138138;23;20211;-86
2021/12/16 05:11:58;;;;;;;18.55;13.50;;;9.20;1.00;;;;;;6136917;23;20663;-88
2021/12/16 05:14:25;;;;;;;16.58;12.50;;;9.20;1.00;;;;;;6140933;23;20209;-86
2021/12/16 05:16:52;;;;;;;14.98;12.20;;;9.10;1.00;;;;;;6126162;23;20275;-88
2021/12/16 05:19:20;;;;;;;16.67;13.02;;;9.10;1.00;;;;;;6140318;23;20205;-86
2021/12/16 05:21:53;;;;;;;18.27;12.77;;;9.10;1.00;;;;;;6109957;23;20304;-88
2021/12/16 05:24:25;;;;;;;23.10;14.43;;;9.10;1.00;;;;;;6135481;23;20243;-85
2021/12/16 05:26:55;;;;;;;22.33;14.35;;;9.10;1.00;;;;;;6135390;23;20197;-85
2021/12/16 05:29:22;;;;;;;16.73;12.57;;;9.00;1.00;;;;;;6138568;23;20220;-86
2021/12/16 05:31:50;;;;;;;16.98;12.10;;;9.00;1.00;;;;;;6137196;23;20212;-85
2021/12/16 05:34:18;;;;;;;18.02;14.57;;;8.90;1.00;;;;;;6112421;23;20211;-84
2021/12/16 05:36:46;;;;;;;19.25;13.18;;;8.90;1.00;;;;;;6135997;23;20313;-83
2021/12/16 05:39:15;;;;;;;19.98;13.90;;;8.90;1.00;;;;;;6107062;23;20947;-84
2021/12/16 05:41:43;;;;;;;19.83;15.00;;;8.80;1.00;;;;;;6133852;23;20613;-82
2021/12/16 05:44:10;;;;;;;22.55;15.20;;;8.70;1.00;;;;;;6102229;23;20273;-81
2021/12/16 05:46:38;;;;;;;20.52;14.20;;;8.60;1.00;;;;;;6127354;23;20191;-83
2021/12/16 05:49:08;;;;;;;20.20;14.48;;;8.60;1.00;;;;;;6129695;23;20196;-83
2021/12/16 05:51:39;;;;;;;20.63;15.95;;;8.60;1.00;;;;;;6129453;23;20190;-83
2021/12/16 05:54:07;;;;;;;21.35;14.38;;;8.60;1.00;;;;;;6133654;23;20217;-82
2021/12/16 05:56:35;;;;;;;21.08;14.63;;;8.50;1.00;;;;;;6130310;23;20221;-84
2021/12/16 05:59:04;;;;;;;21.58;15.40;;;8.50;1.00;;;;;;6131896;23;20201;-80
2021/12/16 06:01:36;;;;;;;26.23;15.48;;;8.50;1.00;;;;;;6140196;23;20193;-83
2021/12/16 06:04:04;;;;;;;22.15;15.55;;;8.50;1.00;;;;;;6139621;23;20188;-83
2021/12/16 06:06:31;;;;;;;22.75;17.30;;;8.50;1.00;;;;;;6147860;23;20195;-82
2021/12/16 06:08:59;;;;;;;25.58;16.25;;;8.40;1.00;;;;;;6139759;23;20237;-82
2021/12/16 06:11:30;;;;;;;22.33;15.88;;;8.40;1.00;;;;;;6139669;23;20256;-84
2021/12/16 06:14:09;;;;;;;30.25;21.05;;;8.40;1.00;;;;;;6135567;23;20278;-84
2021/12/16 06:22:31;;;;;;;28.27;19.30;;;8.40;1.00;;;;;;6126577;23;20189;-78
2021/12/16 06:27:47;;;;;;;25.48;17.17;;;8.40;1.00;;;;;;6118578;23;20186;-79
2021/12/16 06:30:17;;;;;;;23.50;16.48;;;8.40;1.00;;;;;;6121360;23;20293;-79
2021/12/16 06:32:47;;;;;;;28.42;17.65;;;8.40;1.00;;;;;;6121762;23;20189;-78
2021/12/16 06:35:14;;;;;;;25.60;15.73;;;8.40;1.00;;;;;;6094481;23;20973;-77
2021/12/16 06:37:41;;;;;;;24.67;18.42;;;8.40;1.00;;;;;;6094125;23;20266;-77
2021/12/16 06:40:11;;;;;;;25.25;17.92;;;8.50;1.00;;;;;;6099895;23;20233;-82
2021/12/16 06:42:40;;;;;;;27.55;17.02;;;8.50;1.00;;;;;;6120283;23;20199;-85
2021/12/16 06:45:12;;;;;;;31.08;18.85;;;8.50;1.00;;;;;;6124275;23;20198;-83
2021/12/16 06:47:44;;;;;;;28.80;20.25;;;8.60;1.00;;;;;;6129649;23;20250;-82
2021/12/16 06:50:23;;;;;;;37.42;24.75;;;8.60;1.00;;;;;;6098720;23;20229;-83
2021/12/16 06:52:51;;;;;;;33.92;21.30;;;8.70;1.00;;;;;;6131270;23;20211;-84
2021/12/16 06:55:25;;;;;;;29.80;19.65;;;8.70;1.00;;;;;;6103689;23;20207;-79
2021/12/16 06:57:55;;;;;;;27.10;16.70;;;8.70;1.00;;;;;;6131212;23;20217;-86
2021/12/16 07:00:32;;;;;;;26.73;17.75;;;8.70;1.00;;;;;;6133850;23;20202;-86
2021/12/16 07:03:01;;;;;;;27.10;17.40;;;8.70;1.00;;;;;;6133865;23;20207;-85
2021/12/16 07:05:32;;;;;;;19.35;14.30;;;8.80;1.00;;;;;;6126676;23;20199;-83
2021/12/16 07:08:00;;;;;;;20.15;14.50;;;8.70;1.00;;;;;;6118085;23;21330;-81
2021/12/16 07:10:29;;;;;;;29.52;17.08;;;8.70;1.00;;;;;;6119685;23;20201;-80
2021/12/16 07:12:59;;;;;;;25.33;17.65;;;8.80;1.00;;;;;;6116509;23;20195;-81
2021/12/16 07:15:29;;;;;;;25.63;17.00;;;8.80;1.00;;;;;;6116888;23;20199;-80
2021/12/16 07:17:57;;;;;;;25.77;18.48;;;8.80;1.00;;;;;;6099816;23;20204;-78
2021/12/16 07:20:27;;;;;;;22.35;17.88;;;8.80;1.00;;;;;;6134679;23;20193;-81
2021/12/16 07:22:56;;;;;;;24.40;16.85;;;8.90;1.00;;;;;;6118249;23;20201;-80
2021/12/16 07:25:23;;;;;;;22.63;15.70;;;9.00;1.00;;;;;;6116323;23;20191;-79
2021/12/16 07:27:50;;;;;;;24.98;17.35;;;8.90;1.00;;;;;;6115634;23;21013;-82
2021/12/16 07:30:22;;;;;;;21.52;16.13;;;8.90;1.00;;;;;;6116645;23;20234;-82
2021/12/16 07:32:50;;;;;;;25.65;17.88;;;8.90;1.00;;;;;;6119165;23;20186;-80
2021/12/16 07:35:21;;;;;;;26.08;17.33;;;8.90;1.00;;;;;;6120847;23;20292;-82
2021/12/16 07:37:49;;;;;;;28.27;18.40;;;8.90;1.00;;;;;;6095543;23;20219;-81
2021/12/16 07:40:21;;;;;;;25.80;18.47;;;9.00;1.00;;;;;;6119824;23;20420;-80
2021/12/16 07:42:59;;;;;;;27.23;17.15;;;9.00;1.00;;;;;;6131316;23;20414;-81
2021/12/16 07:45:27;;;;;;;29.40;20.48;;;9.00;1.00;;;;;;6131814;23;20205;-82
2021/12/16 07:47:54;;;;;;;27.70;17.77;;;9.00;1.00;;;;;;6116696;23;20212;-81
2021/12/16 07:50:22;;;;;;;22.77;16.08;;;9.00;1.00;;;;;;6144586;23;20388;-81
2021/12/16 07:52:50;;;;;;;22.05;15.60;;;9.00;1.00;;;;;;6147631;23;20181;-81
2021/12/16 07:55:19;;;;;;;20.67;14.52;;;8.90;1.00;;;;;;6140679;23;21314;-80
2021/12/16 07:57:46;;;;;;;24.47;14.90;;;9.00;1.00;;;;;;6139849;23;20218;-82
2021/12/16 08:00:17;;;;;;;20.50;14.18;;;9.00;1.00;;;;;;6131676;23;21117;-81
2021/12/16 08:02:44;;;;;;;21.92;14.90;;;9.00;1.00;;;;;;6135114;23;20185;-81
2021/12/16 08:05:11;;;;;;;21.70;14.38;;;9.00;1.00;;;;;;6116744;23;20280;-82
2021/12/16 08:07:39;;;;;;;19.80;14.20;;;9.00;1.00;;;;;;6119701;23;20195;-84
2021/12/16 08:10:09;;;;;;;22.57;15.67;;;9.10;1.00;;;;;;6137051;23;20364;-82
2021/12/16 08:12:37;;;;;;;18.98;13.65;;;9.00;1.00;;;;;;6108890;23;20540;-82
2021/12/16 08:15:05;;;;;;;18.90;14.65;;;9.00;1.00;;;;;;6126472;23;20215;-82
2021/12/16 08:17:32;;;;;;;24.25;15.43;;;9.00;1.00;;;;;;6122048;23;20271;-81
2021/12/16 08:19:59;;;;;;;20.98;14.68;;;9.10;1.00;;;;;;6145726;23;20191;-85
2021/12/16 08:22:26;;;;;;;19.73;15.63;;;9.10;1.00;;;;;;6137431;23;20208;-82
2021/12/16 08:24:53;;;;;;;21.85;14.50;;;9.10;1.00;;;;;;6096762;23;20267;-83
2021/12/16 08:27:19;;;;;;;22.33;16.00;;;9.10;1.00;;;;;;6120319;23;20193;-83
2021/12/16 08:29:47;;;;;;;19.90;15.02;;;9.10;1.00;;;;;;6120468;23;20491;-83
2021/12/16 08:32:14;;;;;;;23.02;14.88;;;9.10;1.00;;;;;;6125813;23;20278;-83
2021/12/16 08:34:44;;;;;;;20.65;16.60;;;9.20;1.00;;;;;;6121976;23;20982;-86
2021/12/16 08:37:14;;;;;;;20.85;15.73;;;9.10;1.00;;;;;;6126863;23;20183;-88
2021/12/16 08:39:41;;;;;;;16.35;13.18;;;9.10;1.00;;;;;;6106670;23;20278;-88
2021/12/16 08:42:12;;;;;;;20.92;14.93;;;9.10;1.00;;;;;;6119933;23;20191;-88
2021/12/16 08:44:49;;;;;;;23.80;13.82;;;9.10;1.00;;;;;;6150696;23;20304;-88
2021/12/16 08:47:20;;;;;;;18.25;12.75;;;9.10;1.00;;;;;;6101271;23;20198;-88
2021/12/16 08:49:48;;;;;;;16.33;13.02;;;9.10;1.00;;;;;;6127613;23;20678;-86
2021/12/16 08:52:21;;;;;;;21.65;12.52;;;9.10;1.00;;;;;;6130241;23;20195;-86
2021/12/16 08:54:53;;;;;;;17.35;12.55;;;9.20;1.00;;;;;;6130918;23;20218;-83
2021/12/16 08:57:24;;;;;;;17.93;13.03;;;9.20;1.00;;;;;;6104481;23;20196;-87
2021/12/16 08:59:55;;;;;;;14.93;10.63;;;9.20;1.00;;;;;;6102143;23;21065;-85
2021/12/16 09:02:23;;;;;;;17.13;11.07;;;9.20;1.00;;;;;;6131764;23;20581;-84
2021/12/16 09:04:51;;;;;;;16.45;11.00;;;9.20;1.00;;;;;;6123325;23;20193;-85
2021/12/16 09:07:18;;;;;;;18.13;12.13;;;9.20;1.00;;;;;;6128037;23;20184;-83
2021/12/16 09:09:47;;;;;;;16.73;11.95;;;9.20;1.00;;;;;;6123484;23;20200;-84
2021/12/16 09:12:38;;;;;;;15.77;12.57;;;9.20;1.00;;;;;;6123311;23;20275;-84
2021/12/16 09:15:08;;;;;;;18.88;14.18;;;9.20;1.00;;;;;;6126028;23;20192;-83
2021/12/16 09:17:35;;;;;;;18.65;12.95;;;9.30;1.00;;;;;;6120157;23;20193;-81
2021/12/16 09:20:02;;;;;;;16.90;12.35;;;9.30;1.00;;;;;;6136750;23;20345;-83
2021/12/16 09:22:29;;;;;;;16.75;12.23;;;9.30;1.00;;;;;;6132309;23;20198;-85
2021/12/16 09:24:57;;;;;;;16.03;11.77;;;9.40;1.00;;;;;;6122201;23;20202;-80
2021/12/16 09:27:26;;;;;;;17.53;11.27;;;9.50;1.00;;;;;;6126302;23;21387;-79
2021/12/16 09:29:54;;;;;;;14.13;10.57;;;9.40;1.00;;;;;;6125299;23;20480;-79
2021/12/16 09:32:24;;;;;;;13.60;10.47;;;9.40;1.00;;;;;;6122712;23;20400;-79
2021/12/16 09:34:51;;;;;;;17.33;13.57;;;9.40;1.00;;;;;;6121957;23;20447;-83
2021/12/16 09:37:18;;;;;;;16.20;12.13;;;9.40;1.00;;;;;;6122893;23;20487;-80
2021/12/16 09:39:45;;;;;;;14.90;11.37;;;9.40;1.00;;;;;;6095166;23;21671;-83
2021/12/16 09:42:12;;;;;;;15.93;11.63;;;9.50;1.00;;;;;;6123953;23;20429;-84
2021/12/16 09:44:40;;;;;;;14.90;11.20;;;9.50;1.00;;;;;;6143771;23;20811;-81
2021/12/16 09:47:10;;;;;;;16.70;12.40;;;9.50;1.00;;;;;;6135171;23;20385;-81
2021/12/16 09:49:38;;;;;;;15.53;10.77;;;9.50;1.00;;;;;;6122388;23;20403;-79
2021/12/16 09:52:10;;;;;;;13.93;10.18;;;9.50;1.00;;;;;;6135862;23;20376;-79
2021/12/16 09:54:37;;;;;;;24.43;21.33;;;9.50;1.00;;;;;;6119395;23;20191;-80
2021/12/16 09:57:04;;;;;;;16.90;11.40;;;9.50;1.00;;;;;;6117269;23;20800;-83
2021/12/16 09:59:33;;;;;;;17.80;13.57;;;9.50;1.00;;;;;;6116283;23;20439;-80
2021/12/16 10:02:04;;;;;;;16.20;11.73;;;9.60;1.00;;;;;;6120041;23;20846;-80
2021/12/16 10:04:32;;;;;;;16.90;10.67;;;9.60;1.00;;;;;;6092222;23;20939;-83
2021/12/16 10:07:04;;;;;;;17.03;11.40;;;9.70;1.00;;;;;;6124353;23;20398;-79
2021/12/16 10:09:31;;;;;;;14.83;12.13;;;9.70;1.00;;;;;;6122303;23;20606;-82
2021/12/16 10:12:05;;;;;;;16.80;11.97;;;9.70;1.00;;;;;;6094016;23;20411;-82
2021/12/16 10:14:45;;;;;;;16.27;11.10;;;9.80;1.00;;;;;;6121257;23;20370;-82
2021/12/16 10:17:24;;;;;;;16.33;11.43;;;9.80;1.00;;;;;;6120784;23;21147;-79
2021/12/16 10:19:53;;;;;;;13.23;10.00;;;9.90;1.00;;;;;;6120954;23;20494;-81
2021/12/16 10:22:32;;;;;;;12.97;11.10;;;9.90;1.00;;;;;;6125331;23;20447;-83
2021/12/16 10:25:22;;;;;;;13.20;10.73;;;9.80;1.00;;;;;;6101155;23;20410;-80
2021/12/16 10:27:56;;;;;;;11.80;9.87;;;9.90;1.00;;;;;;6099044;23;20427;-82
2021/12/16 10:30:23;;;;;;;21.60;16.53;;;9.90;1.00;;;;;;6120713;23;20401;-81
2021/12/16 10:32:54;;;;;;;13.00;9.57;;;9.90;1.00;;;;;;6089633;23;20517;-82
2021/12/16 10:35:28;;;;;;;15.30;10.40;;;10.00;1.00;;;;;;6122591;23;20474;-81
2021/12/16 10:38:00;;;;;;;14.40;9.00;;;10.00;1.00;;;;;;6121352;23;21307;-83
2021/12/16 10:40:37;;;;;;;11.33;9.20;;;10.00;1.00;;;;;;6123877;23;20374;-82
2021/12/16 10:43:13;;;;;;;13.97;9.57;;;10.00;1.00;;;;;;6125132;23;20418;-82
2021/12/16 10:45:44;;;;;;;13.57;9.60;;;10.10;1.00;;;;;;6130301;23;20370;-81
2021/12/16 10:48:21;;;;;;;14.33;8.70;;;10.10;1.00;;;;;;6145527;23;20510;-82
2021/12/16 10:50:59;;;;;;;10.53;8.53;;;10.10;1.00;;;;;;6133199;23;20406;-82
2021/12/16 10:53:49;;;;;;;13.30;11.87;;;10.20;1.00;;;;;;6098917;23;21011;-81
2021/12/16 10:56:18;;;;;;;10.60;8.07;;;10.30;1.00;;;;;;6140186;23;20490;-82
2021/12/16 10:58:50;;;;;;;11.07;8.47;;;10.30;1.00;;;;;;6144215;23;20744;-81
2021/12/16 11:01:49;;;;;;;10.47;8.87;;;10.30;1.00;;;;;;6113920;23;20392;-78
2021/12/16 11:04:21;;;;;;;10.00;6.83;;;10.30;1.00;;;;;;6091840;23;20493;-78
2021/12/16 11:06:52;;;;;;;10.53;6.83;;;10.40;1.00;;;;;;6142605;23;20392;-84
2021/12/16 11:09:46;;;;;;;15.60;8.20;;;10.40;1.00;;;;;;6140404;23;20399;-81
2021/12/16 11:12:20;;;;;;;12.70;8.90;;;10.40;1.00;;;;;;6146590;23;20422;-80
2021/12/16 11:14:54;;;;;;;9.57;7.43;;;10.50;1.00;;;;;;6116522;23;20416;-81
2021/12/16 11:17:23;;;;;;;9.07;6.80;;;10.50;1.00;;;;;;6113408;23;20430;-80
2021/12/16 11:19:57;;;;;;;10.47;7.70;;;10.60;1.00;;;;;;6140709;23;20443;-82
2021/12/16 11:22:29;;;;;;;9.60;6.00;;;10.60;1.00;;;;;;6116567;23;20505;-80
2021/12/16 11:24:59;;;;;;;8.93;6.03;;;10.60;1.00;;;;;;6114459;23;20510;-81
2021/12/16 11:27:34;;;;;;;9.33;6.40;;;10.60;1.00;;;;;;6111098;23;20992;-82
2021/12/16 11:30:39;;;;;;;9.77;6.80;;;10.60;1.00;;;;;;6131754;23;20432;-81
2021/12/16 11:33:12;;;;;;;12.03;6.67;;;10.80;1.00;;;;;;6107658;23;20432;-81
2021/12/16 11:35:45;;;;;;;7.93;4.93;;;11.10;1.00;;;;;;6135760;23;20558;-82
2021/12/16 11:41:48;;;;;;;6.00;4.70;;;11.80;1.00;;;;;;6122963;23;20415;-82
2021/12/16 12:34:29;;;;;;;8.07;4.63;;;11.20;1.00;;;;;;5874801;24;20371;-79
2021/12/16 12:36:59;;;;;;;10.93;5.00;;;11.50;1.00;;;;;;5974903;23;20964;-83
2021/12/16 12:39:33;;;;;;;9.60;4.73;;;12.10;1.00;;;;;;6066448;23;20503;-84
2021/12/16 12:42:00;;;;;;;7.83;4.87;;;13.40;1.00;;;;;;6091567;23;20397;-83
2021/12/16 12:44:27;;;;;;;10.67;6.33;;;15.70;1.00;;;;;;6099741;23;20460;-86
2021/12/16 12:46:55;;;;;;;8.10;4.63;;;17.20;1.00;;;;;;6094683;23;20422;-84
2021/12/16 12:49:25;;;;;;;9.77;4.80;;;17.30;1.00;;;;;;6090384;23;20375;-84
2021/12/16 12:52:02;;;;;;;8.73;4.27;;;18.00;1.00;;;;;;6093538;23;21175;-81
2021/12/16 12:54:32;;;;;;;17.50;5.80;;;18.80;1.00;;;;;;6097149;23;20411;-87
2021/12/16 12:57:28;;;;;;;6.70;4.17;;;18.30;1.00;;;;;;6098225;23;20451;-87
2021/12/16 12:59:58;;;;;;;10.57;5.40;;;17.70;1.00;;;;;;6099940;23;20438;-88
2021/12/16 13:02:40;;;;;;;7.60;4.47;;;17.80;1.00;;;;;;6101181;23;20496;-89
2021/12/16 13:05:11;;;;;;;8.67;3.83;;;18.70;1.00;;;;;;6105954;23;20416;-85
2021/12/16 13:07:54;;;;;;;8.40;4.10;;;19.30;1.00;;;;;;6092946;23;20899;-85
2021/12/16 13:10:24;;;;;;;14.03;5.37;;;19.30;1.00;;;;;;6091806;23;20207;-86
2021/12/16 13:12:57;;;;;;;5.17;3.73;;;17.90;1.00;;;;;;6097815;23;20806;-85
2021/12/16 13:15:39;;;;;;;12.37;6.00;;;16.30;1.00;;;;;;6116672;23;20390;-83
2021/12/16 13:26:38;;;;;;;8.30;4.40;;;12.40;1.00;;;;;;6100171;23;20440;-85
2021/12/16 13:29:13;;;;;;;13.70;5.30;;;11.90;1.00;;;;;;6097889;23;20400;-87
2021/12/16 13:31:52;;;;;;;7.63;4.18;;;11.50;1.00;;;;;;6088382;23;20395;-84
2021/12/16 13:34:35;;;;;;;4.73;3.50;;;11.30;1.00;;;;;;6092240;23;20634;-81
2021/12/16 13:37:08;;;;;;;6.80;4.60;;;11.00;1.00;;;;;;6093844;23;20496;-81
2021/12/16 13:39:43;;;;;;;8.47;4.57;;;10.90;1.00;;;;;;6091262;23;21292;-83
2021/12/16 13:42:13;;;;;;;8.00;4.83;;;10.60;1.00;;;;;;6086073;23;20421;-82
2021/12/16 13:45:01;;;;;;;7.83;4.20;;;10.50;1.00;;;;;;6088382;23;20401;-81
2021/12/16 13:47:44;;;;;;;13.03;4.63;;;10.40;1.00;;;;;;6091591;23;20428;-82
2021/12/16 14:05:45;;;;;;;11.10;4.23;;;10.00;1.00;;;;;;6072831;23;20405;-83
2021/12/16 14:08:28;;;;;;;6.47;4.83;;;9.90;1.00;;;;;;6097127;23;20407;-84
2021/12/16 14:10:58;;;;;;;9.53;5.90;;;9.80;1.00;;;;;;6112461;23;20416;-85
2021/12/16 14:16:31;;;;;;;9.20;5.00;;;9.80;1.00;;;;;;6113611;23;20203;-84
2021/12/16 14:36:45;;;;;;;10.10;5.50;;;9.50;1.00;;;;;;6083424;23;20361;-82
2021/12/16 14:42:13;;;;;;;6.90;4.47;;;9.40;1.00;;;;;;6093557;23;20880;-83
2021/12/16 14:50:23;;;;;;;10.33;5.10;;;9.30;1.00;;;;;;6095426;23;21015;-81
2021/12/16 14:52:50;;;;;;;12.73;5.60;;;9.20;1.00;;;;;;6094811;23;20389;-81
2021/12/16 14:55:19;;;;;;;9.10;3.83;;;9.20;1.00;;;;;;6094410;23;20436;-82
2021/12/16 14:57:48;;;;;;;7.90;3.70;;;9.20;1.00;;;;;;6090026;23;21120;-83
2021/12/16 15:00:19;;;;;;;5.87;3.30;;;9.10;1.00;;;;;;6090714;23;20404;-83
2021/12/16 15:02:58;;;;;;;9.70;4.03;;;9.10;1.00;;;;;;6093221;23;20413;-83
2021/12/16 15:05:28;;;;;;;8.87;3.83;;;9.10;1.00;;;;;;6090603;23;20920;-82
2021/12/16 15:08:04;;;;;;;10.20;3.78;;;9.00;1.00;;;;;;6090653;23;20408;-82
2021/12/16 15:10:31;;;;;;;17.27;5.00;;;8.90;1.00;;;;;;6093368;23;21349;-81
2021/12/16 15:13:05;;;;;;;8.85;4.57;;;8.80;1.00;;;;;;6097644;23;20937;-82
2021/12/16 15:15:38;;;;;;;8.82;5.30;;;8.80;1.00;;;;;;6093589;23;20279;-85
2021/12/16 15:37:39;;;;;;;9.00;5.38;;;8.50;1.00;;;;;;6095290;23;20284;-83
2021/12/16 15:40:16;;;;;;;7.07;5.28;;;8.40;1.00;;;;;;6115442;23;20206;-83
2021/12/16 15:42:48;;;;;;;11.20;5.32;;;8.40;1.00;;;;;;6095550;23;20240;-82
2021/12/16 15:45:17;;;;;;;9.85;5.70;;;8.40;1.00;;;;;;6098374;23;20197;-81
2021/12/16 15:47:47;;;;;;;12.02;6.10;;;8.30;1.00;;;;;;6111189;23;20210;-81
2021/12/16 15:50:22;;;;;;;12.40;7.15;;;8.30;1.00;;;;;;6113416;23;20617;-87
2021/12/16 15:52:52;;;;;;;15.50;7.95;;;8.30;1.00;;;;;;6110071;23;20247;-88
2021/12/16 15:55:30;;;;;;;17.05;6.75;;;8.40;1.00;;;;;;6106695;23;20192;-87
2021/12/16 15:58:09;;;;;;;9.50;5.80;;;8.30;1.00;;;;;;6112971;23;20191;-90
2021/12/16 16:03:44;;;;;;;8.30;6.07;;;8.30;1.00;;;;;;6121093;23;20393;-85
2021/12/16 16:06:19;;;;;;;12.23;5.45;;;8.30;1.00;;;;;;6110468;23;20970;-83
2021/12/16 16:08:57;;;;;;;8.52;5.20;;;8.20;1.00;;;;;;6116282;23;20221;-82
2021/12/16 16:11:28;;;;;;;12.45;6.22;;;8.10;1.00;;;;;;6113449;23;20201;-80
2021/12/16 16:13:59;;;;;;;9.57;5.25;;;8.10;1.00;;;;;;6113562;23;20497;-89
2021/12/16 16:16:34;;;;;;;13.48;5.70;;;8.10;1.00;;;;;;6120342;23;20213;-87
2021/12/16 16:19:03;;;;;;;11.90;6.18;;;8.00;1.00;;;;;;6110980;23;20198;-85
2021/12/16 16:21:35;;;;;;;10.00;5.80;;;8.00;1.00;;;;;;6107668;23;20252;-89
2021/12/16 16:24:06;;;;;;;8.95;5.38;;;8.00;1.00;;;;;;6117989;23;20388;-89
2021/12/16 16:26:34;;;;;;;10.60;4.75;;;7.90;1.00;;;;;;6124191;23;20165;-89
2021/12/16 16:29:04;;;;;;;9.70;5.35;;;7.90;1.00;;;;;;6124259;23;20220;-86
2021/12/16 16:31:33;;;;;;;13.32;4.60;;;7.90;1.00;;;;;;6120246;23;20240;-84
2021/12/16 16:34:01;;;;;;;8.38;4.78;;;7.90;1.00;;;;;;6119379;23;20265;-84
2021/12/16 16:36:31;;;;;;;7.47;4.20;;;7.90;1.00;;;;;;6122215;23;20194;-87
2021/12/16 16:39:01;;;;;;;11.88;5.30;;;7.90;1.00;;;;;;6108156;23;20217;-85
2021/12/16 16:41:31;;;;;;;8.52;4.28;;;7.90;1.00;;;;;;6100142;23;20671;-87
2021/12/16 16:44:01;;;;;;;5.85;3.70;;;7.80;1.00;;;;;;6104300;23;20194;-86
2021/12/16 16:46:38;;;;;;;9.77;5.55;;;7.80;1.00;;;;;;6108046;23;20948;-87
2021/12/16 16:49:08;;;;;;;12.65;5.15;;;7.80;1.00;;;;;;6104184;23;20200;-87
2021/12/16 16:51:42;;;;;;;8.98;5.13;;;7.70;1.00;;;;;;6101301;23;20184;-86
2021/12/16 16:54:15;;;;;;;12.45;4.95;;;7.70;1.00;;;;;;6102921;23;20201;-84
2021/12/16 16:56:57;;;;;;;15.00;6.70;;;7.70;1.00;;;;;;6106215;23;20184;-86